sensor_id;sensor_type;location;lat;lon;timestamp;P1;durP1;ratioP1;P2;durP2;ratioP2
76786;SDS011;65739;51.482;5.702;2023-05-10T00:01:43;15.15;;;8.57;;
76786;SDS011;65739;51.482;5.702;2023-05-10T00:04:08;19.23;;;8.90;;
76786;SDS011;65739;51.482;5.702;2023-05-10T00:06:34;14.23;;;8.48;;
76786;SDS011;65739;51.482;5.702;2023-05-10T00:08:59;16.95;;;9.10;;
76786;SDS011;65739;51.482;5.702;2023-05-10T00:11:25;19.15;;;9.52;;
76786;SDS011;65739;51.482;5.702;2023-05-10T00:13:50;16.02;;;9.73;;
76786;SDS011;65739;51.482;5.702;2023-05-10T00:16:16;18.17;;;11.15;;
76786;SDS011;65739;51.482;5.702;2023-05-10T00:18:42;19.90;;;10.48;;
76786;SDS011;65739;51.482;5.702;2023-05-10T00:21:07;20.27;;;10.88;;
76786;SDS011;65739;51.482;5.702;2023-05-10T00:23:33;21.83;;;11.93;;
76786;SDS011;65739;51.482;5.702;2023-05-10T00:25:58;18.35;;;11.32;;
76786;SDS011;65739;51.482;5.702;2023-05-10T00:28:24;22.15;;;11.30;;
76786;SDS011;65739;51.482;5.702;2023-05-10T00:30:49;21.08;;;11.23;;
76786;SDS011;65739;51.482;5.702;2023-05-10T00:33:15;22.20;;;11.80;;
76786;SDS011;65739;51.482;5.702;2023-05-10T00:35:40;25.98;;;12.75;;
76786;SDS011;65739;51.482;5.702;2023-05-10T00:38:06;25.23;;;12.35;;
76786;SDS011;65739;51.482;5.702;2023-05-10T00:40:31;24.65;;;12.85;;
76786;SDS011;65739;51.482;5.702;2023-05-10T00:42:57;28.95;;;12.73;;
76786;SDS011;65739;51.482;5.702;2023-05-10T00:45:24;34.72;;;14.25;;
76786;SDS011;65739;51.482;5.702;2023-05-10T00:47:50;29.13;;;14.05;;
76786;SDS011;65739;51.482;5.702;2023-05-10T00:50:19;25.88;;;13.45;;
76786;SDS011;65739;51.482;5.702;2023-05-10T00:52:45;29.48;;;13.38;;
76786;SDS011;65739;51.482;5.702;2023-05-10T00:55:11;26.83;;;14.13;;
76786;SDS011;65739;51.482;5.702;2023-05-10T00:57:37;28.17;;;13.38;;
76786;SDS011;65739;51.482;5.702;2023-05-10T01:00:03;34.10;;;14.93;;
76786;SDS011;65739;51.482;5.702;2023-05-10T01:02:29;26.45;;;13.45;;
76786;SDS011;65739;51.482;5.702;2023-05-10T01:04:55;32.13;;;14.30;;
76786;SDS011;65739;51.482;5.702;2023-05-10T01:07:20;29.23;;;14.52;;
76786;SDS011;65739;51.482;5.702;2023-05-10T01:09:46;33.05;;;15.55;;
76786;SDS011;65739;51.482;5.702;2023-05-10T01:12:12;39.38;;;16.67;;
76786;SDS011;65739;51.482;5.702;2023-05-10T01:14:38;41.60;;;17.60;;
76786;SDS011;65739;51.482;5.702;2023-05-10T01:17:04;35.10;;;16.95;;
76786;SDS011;65739;51.482;5.702;2023-05-10T01:19:31;50.88;;;20.42;;
76786;SDS011;65739;51.482;5.702;2023-05-10T01:38:29;63.05;;;23.67;;
76786;SDS011;65739;51.482;5.702;2023-05-10T01:46:35;95.47;;;30.70;;
76786;SDS011;65739;51.482;5.702;2023-05-10T01:49:02;85.30;;;31.25;;
76786;SDS011;65739;51.482;5.702;2023-05-10T01:51:37;101.40;;;32.72;;
76786;SDS011;65739;51.482;5.702;2023-05-10T01:54:09;112.97;;;37.17;;
76786;SDS011;65739;51.482;5.702;2023-05-10T01:56:38;107.85;;;36.50;;
76786;SDS011;65739;51.482;5.702;2023-05-10T01:59:05;119.78;;;38.13;;
76786;SDS011;65739;51.482;5.702;2023-05-10T02:01:36;117.05;;;36.85;;
76786;SDS011;65739;51.482;5.702;2023-05-10T02:04:02;111.82;;;36.30;;
76786;SDS011;65739;51.482;5.702;2023-05-10T02:06:28;120.70;;;38.85;;
76786;SDS011;65739;51.482;5.702;2023-05-10T02:08:57;123.97;;;39.38;;
76786;SDS011;65739;51.482;5.702;2023-05-10T02:11:23;127.32;;;39.60;;
76786;SDS011;65739;51.482;5.702;2023-05-10T02:13:50;113.97;;;37.63;;
76786;SDS011;65739;51.482;5.702;2023-05-10T02:16:18;108.13;;;37.22;;
76786;SDS011;65739;51.482;5.702;2023-05-10T02:18:48;116.50;;;36.92;;
76786;SDS011;65739;51.482;5.702;2023-05-10T02:21:16;110.50;;;37.15;;
76786;SDS011;65739;51.482;5.702;2023-05-10T02:23:43;117.43;;;38.28;;
76786;SDS011;65739;51.482;5.702;2023-05-10T02:26:11;105.15;;;36.33;;
76786;SDS011;65739;51.482;5.702;2023-05-10T02:28:38;103.25;;;35.70;;
76786;SDS011;65739;51.482;5.702;2023-05-10T02:31:07;111.07;;;36.92;;
76786;SDS011;65739;51.482;5.702;2023-05-10T02:33:34;104.65;;;36.42;;
76786;SDS011;65739;51.482;5.702;2023-05-10T02:36:01;109.65;;;37.08;;
76786;SDS011;65739;51.482;5.702;2023-05-10T02:38:28;111.20;;;37.55;;
76786;SDS011;65739;51.482;5.702;2023-05-10T02:40:55;112.45;;;38.97;;
76786;SDS011;65739;51.482;5.702;2023-05-10T02:43:22;108.65;;;39.20;;
76786;SDS011;65739;51.482;5.702;2023-05-10T02:45:48;103.63;;;40.10;;
76786;SDS011;65739;51.482;5.702;2023-05-10T02:48:15;103.05;;;39.42;;
76786;SDS011;65739;51.482;5.702;2023-05-10T02:50:42;101.38;;;39.83;;
76786;SDS011;65739;51.482;5.702;2023-05-10T02:53:11;103.07;;;39.97;;
76786;SDS011;65739;51.482;5.702;2023-05-10T02:55:42;91.85;;;40.17;;
76786;SDS011;65739;51.482;5.702;2023-05-10T02:58:14;105.38;;;42.53;;
76786;SDS011;65739;51.482;5.702;2023-05-10T03:00:39;104.65;;;42.08;;
76786;SDS011;65739;51.482;5.702;2023-05-10T03:03:05;95.03;;;39.92;;
76786;SDS011;65739;51.482;5.702;2023-05-10T03:05:31;95.25;;;38.55;;
76786;SDS011;65739;51.482;5.702;2023-05-10T03:07:58;96.10;;;39.00;;
76786;SDS011;65739;51.482;5.702;2023-05-10T03:10:26;97.18;;;38.10;;
76786;SDS011;65739;51.482;5.702;2023-05-10T03:13:12;94.88;;;40.65;;
76786;SDS011;65739;51.482;5.702;2023-05-10T03:15:55;89.07;;;37.70;;
76786;SDS011;65739;51.482;5.702;2023-05-10T03:21:04;105.20;;;40.88;;
76786;SDS011;65739;51.482;5.702;2023-05-10T03:23:40;100.80;;;41.00;;
76786;SDS011;65739;51.482;5.702;2023-05-10T03:26:09;95.72;;;39.60;;
76786;SDS011;65739;51.482;5.702;2023-05-10T03:28:35;98.13;;;40.85;;
76786;SDS011;65739;51.482;5.702;2023-05-10T03:31:02;84.32;;;35.85;;
76786;SDS011;65739;51.482;5.702;2023-05-10T03:33:30;91.72;;;38.80;;
76786;SDS011;65739;51.482;5.702;2023-05-10T03:35:56;93.25;;;38.85;;
76786;SDS011;65739;51.482;5.702;2023-05-10T03:38:22;95.70;;;39.25;;
76786;SDS011;65739;51.482;5.702;2023-05-10T03:40:47;95.80;;;38.67;;
76786;SDS011;65739;51.482;5.702;2023-05-10T03:43:13;95.43;;;37.92;;
76786;SDS011;65739;51.482;5.702;2023-05-10T03:45:38;98.93;;;38.63;;
76786;SDS011;65739;51.482;5.702;2023-05-10T03:48:04;97.10;;;38.03;;
76786;SDS011;65739;51.482;5.702;2023-05-10T03:50:30;91.68;;;39.15;;
76786;SDS011;65739;51.482;5.702;2023-05-10T03:52:56;99.53;;;38.40;;
76786;SDS011;65739;51.482;5.702;2023-05-10T03:55:22;98.07;;;40.63;;
76786;SDS011;65739;51.482;5.702;2023-05-10T03:57:48;95.25;;;38.90;;
76786;SDS011;65739;51.482;5.702;2023-05-10T04:00:14;93.53;;;38.17;;
76786;SDS011;65739;51.482;5.702;2023-05-10T04:02:40;97.80;;;39.30;;
76786;SDS011;65739;51.482;5.702;2023-05-10T04:05:06;93.72;;;38.85;;
76786;SDS011;65739;51.482;5.702;2023-05-10T04:07:31;85.75;;;37.33;;
76786;SDS011;65739;51.482;5.702;2023-05-10T04:09:57;88.85;;;37.08;;
76786;SDS011;65739;51.482;5.702;2023-05-10T04:12:23;90.13;;;38.85;;
76786;SDS011;65739;51.482;5.702;2023-05-10T04:14:48;86.45;;;35.08;;
76786;SDS011;65739;51.482;5.702;2023-05-10T04:17:14;94.25;;;37.70;;
76786;SDS011;65739;51.482;5.702;2023-05-10T04:19:40;90.20;;;37.40;;
76786;SDS011;65739;51.482;5.702;2023-05-10T04:22:05;87.05;;;37.40;;
76786;SDS011;65739;51.482;5.702;2023-05-10T04:24:31;93.20;;;36.40;;
76786;SDS011;65739;51.482;5.702;2023-05-10T04:26:56;96.03;;;37.72;;
76786;SDS011;65739;51.482;5.702;2023-05-10T04:29:22;110.45;;;38.53;;
76786;SDS011;65739;51.482;5.702;2023-05-10T04:31:47;87.43;;;36.05;;
76786;SDS011;65739;51.482;5.702;2023-05-10T04:34:13;90.20;;;36.00;;
76786;SDS011;65739;51.482;5.702;2023-05-10T04:36:42;90.85;;;36.53;;
76786;SDS011;65739;51.482;5.702;2023-05-10T04:39:10;98.50;;;37.65;;
76786;SDS011;65739;51.482;5.702;2023-05-10T04:41:37;92.40;;;36.00;;
76786;SDS011;65739;51.482;5.702;2023-05-10T04:44:03;93.72;;;37.05;;
76786;SDS011;65739;51.482;5.702;2023-05-10T04:46:28;83.28;;;34.30;;
76786;SDS011;65739;51.482;5.702;2023-05-10T04:48:54;107.63;;;39.10;;
76786;SDS011;65739;51.482;5.702;2023-05-10T04:51:22;113.07;;;39.10;;
76786;SDS011;65739;51.482;5.702;2023-05-10T04:53:47;103.88;;;38.20;;
76786;SDS011;65739;51.482;5.702;2023-05-10T04:56:16;111.07;;;38.78;;
76786;SDS011;65739;51.482;5.702;2023-05-10T04:58:41;120.50;;;40.67;;
76786;SDS011;65739;51.482;5.702;2023-05-10T05:01:07;115.63;;;39.85;;
76786;SDS011;65739;51.482;5.702;2023-05-10T05:03:33;127.75;;;43.25;;
76786;SDS011;65739;51.482;5.702;2023-05-10T05:05:59;126.05;;;42.88;;
76786;SDS011;65739;51.482;5.702;2023-05-10T05:08:24;132.00;;;45.08;;
76786;SDS011;65739;51.482;5.702;2023-05-10T05:10:50;136.73;;;45.10;;
76786;SDS011;65739;51.482;5.702;2023-05-10T05:13:15;134.13;;;47.53;;
76786;SDS011;65739;51.482;5.702;2023-05-10T05:15:41;131.13;;;46.53;;
76786;SDS011;65739;51.482;5.702;2023-05-10T05:18:06;129.15;;;46.25;;
76786;SDS011;65739;51.482;5.702;2023-05-10T05:20:32;127.03;;;46.13;;
76786;SDS011;65739;51.482;5.702;2023-05-10T05:22:59;111.57;;;43.17;;
76786;SDS011;65739;51.482;5.702;2023-05-10T05:25:25;99.82;;;40.53;;
76786;SDS011;65739;51.482;5.702;2023-05-10T05:27:50;109.47;;;40.83;;
76786;SDS011;65739;51.482;5.702;2023-05-10T05:30:16;110.60;;;40.97;;
76786;SDS011;65739;51.482;5.702;2023-05-10T05:32:41;101.15;;;39.15;;
76786;SDS011;65739;51.482;5.702;2023-05-10T05:35:07;86.38;;;35.30;;
76786;SDS011;65739;51.482;5.702;2023-05-10T05:37:33;80.40;;;34.67;;
76786;SDS011;65739;51.482;5.702;2023-05-10T05:39:58;78.65;;;34.90;;
76786;SDS011;65739;51.482;5.702;2023-05-10T05:42:26;87.90;;;35.35;;
76786;SDS011;65739;51.482;5.702;2023-05-10T05:44:51;74.93;;;33.20;;
76786;SDS011;65739;51.482;5.702;2023-05-10T05:47:17;82.78;;;33.85;;
76786;SDS011;65739;51.482;5.702;2023-05-10T05:49:42;79.50;;;33.42;;
76786;SDS011;65739;51.482;5.702;2023-05-10T05:52:10;66.63;;;31.80;;
76786;SDS011;65739;51.482;5.702;2023-05-10T05:54:36;68.75;;;30.85;;
76786;SDS011;65739;51.482;5.702;2023-05-10T05:57:02;62.50;;;28.95;;
76786;SDS011;65739;51.482;5.702;2023-05-10T05:59:27;59.67;;;29.85;;
76786;SDS011;65739;51.482;5.702;2023-05-10T06:01:54;66.80;;;30.27;;
76786;SDS011;65739;51.482;5.702;2023-05-10T06:04:19;62.25;;;29.58;;
76786;SDS011;65739;51.482;5.702;2023-05-10T06:06:45;58.80;;;28.77;;
76786;SDS011;65739;51.482;5.702;2023-05-10T06:09:11;59.70;;;29.33;;
76786;SDS011;65739;51.482;5.702;2023-05-10T06:11:37;63.47;;;28.38;;
76786;SDS011;65739;51.482;5.702;2023-05-10T06:14:03;51.33;;;25.48;;
76786;SDS011;65739;51.482;5.702;2023-05-10T06:16:29;44.60;;;23.70;;
76786;SDS011;65739;51.482;5.702;2023-05-10T06:18:55;46.15;;;23.67;;
76786;SDS011;65739;51.482;5.702;2023-05-10T06:21:21;49.83;;;24.38;;
76786;SDS011;65739;51.482;5.702;2023-05-10T06:23:47;45.25;;;23.38;;
76786;SDS011;65739;51.482;5.702;2023-05-10T06:26:12;44.55;;;22.75;;
76786;SDS011;65739;51.482;5.702;2023-05-10T06:28:38;51.45;;;24.00;;
76786;SDS011;65739;51.482;5.702;2023-05-10T06:31:04;43.60;;;22.38;;
76786;SDS011;65739;51.482;5.702;2023-05-10T06:33:30;46.63;;;23.48;;
76786;SDS011;65739;51.482;5.702;2023-05-10T06:35:56;41.92;;;23.00;;
76786;SDS011;65739;51.482;5.702;2023-05-10T06:38:22;41.40;;;22.40;;
76786;SDS011;65739;51.482;5.702;2023-05-10T06:40:47;41.00;;;22.35;;
76786;SDS011;65739;51.482;5.702;2023-05-10T06:43:13;46.05;;;22.80;;
76786;SDS011;65739;51.482;5.702;2023-05-10T06:45:39;37.65;;;21.85;;
76786;SDS011;65739;51.482;5.702;2023-05-10T06:48:04;39.65;;;21.98;;
76786;SDS011;65739;51.482;5.702;2023-05-10T06:50:30;41.58;;;22.02;;
76786;SDS011;65739;51.482;5.702;2023-05-10T06:52:55;40.47;;;21.08;;
76786;SDS011;65739;51.482;5.702;2023-05-10T06:55:21;40.35;;;21.77;;
76786;SDS011;65739;51.482;5.702;2023-05-10T06:57:47;41.38;;;22.02;;
76786;SDS011;65739;51.482;5.702;2023-05-10T07:00:13;37.78;;;22.33;;
76786;SDS011;65739;51.482;5.702;2023-05-10T07:02:39;39.28;;;20.65;;
76786;SDS011;65739;51.482;5.702;2023-05-10T07:05:04;35.30;;;21.30;;
76786;SDS011;65739;51.482;5.702;2023-05-10T07:07:30;38.42;;;21.35;;
76786;SDS011;65739;51.482;5.702;2023-05-10T07:09:56;37.15;;;22.58;;
76786;SDS011;65739;51.482;5.702;2023-05-10T07:12:22;35.88;;;21.52;;
76786;SDS011;65739;51.482;5.702;2023-05-10T07:14:48;35.20;;;20.27;;
76786;SDS011;65739;51.482;5.702;2023-05-10T07:17:14;34.17;;;20.85;;
76786;SDS011;65739;51.482;5.702;2023-05-10T07:19:39;36.17;;;20.60;;
76786;SDS011;65739;51.482;5.702;2023-05-10T07:22:05;35.78;;;21.80;;
76786;SDS011;65739;51.482;5.702;2023-05-10T07:24:32;39.22;;;21.70;;
76786;SDS011;65739;51.482;5.702;2023-05-10T07:26:58;40.38;;;22.15;;
76786;SDS011;65739;51.482;5.702;2023-05-10T07:29:24;39.17;;;22.80;;
76786;SDS011;65739;51.482;5.702;2023-05-10T07:31:49;42.80;;;23.00;;
76786;SDS011;65739;51.482;5.702;2023-05-10T07:34:15;39.45;;;23.85;;
76786;SDS011;65739;51.482;5.702;2023-05-10T07:36:40;39.75;;;21.80;;
76786;SDS011;65739;51.482;5.702;2023-05-10T07:39:06;42.70;;;23.60;;
76786;SDS011;65739;51.482;5.702;2023-05-10T07:41:32;39.20;;;24.08;;
76786;SDS011;65739;51.482;5.702;2023-05-10T07:43:58;40.53;;;23.70;;
76786;SDS011;65739;51.482;5.702;2023-05-10T07:46:23;39.55;;;23.50;;
76786;SDS011;65739;51.482;5.702;2023-05-10T07:48:49;41.47;;;23.77;;
76786;SDS011;65739;51.482;5.702;2023-05-10T07:51:14;37.13;;;22.77;;
76786;SDS011;65739;51.482;5.702;2023-05-10T07:53:40;39.80;;;23.08;;
76786;SDS011;65739;51.482;5.702;2023-05-10T07:58:54;39.80;;;22.73;;
76786;SDS011;65739;51.482;5.702;2023-05-10T08:01:26;36.67;;;22.13;;
76786;SDS011;65739;51.482;5.702;2023-05-10T08:03:54;38.78;;;23.13;;
76786;SDS011;65739;51.482;5.702;2023-05-10T08:06:20;38.80;;;22.75;;
76786;SDS011;65739;51.482;5.702;2023-05-10T08:08:46;41.58;;;23.80;;
76786;SDS011;65739;51.482;5.702;2023-05-10T08:11:17;38.85;;;22.08;;
76786;SDS011;65739;51.482;5.702;2023-05-10T08:13:43;37.28;;;22.60;;
76786;SDS011;65739;51.482;5.702;2023-05-10T08:16:09;36.92;;;21.40;;
76786;SDS011;65739;51.482;5.702;2023-05-10T08:18:35;38.60;;;21.52;;
76786;SDS011;65739;51.482;5.702;2023-05-10T08:21:01;33.53;;;20.65;;
76786;SDS011;65739;51.482;5.702;2023-05-10T08:23:27;38.28;;;21.67;;
76786;SDS011;65739;51.482;5.702;2023-05-10T08:25:52;35.88;;;20.63;;
76786;SDS011;65739;51.482;5.702;2023-05-10T08:28:18;33.17;;;19.67;;
76786;SDS011;65739;51.482;5.702;2023-05-10T08:30:43;32.53;;;18.48;;
76786;SDS011;65739;51.482;5.702;2023-05-10T08:33:09;28.48;;;18.95;;
76786;SDS011;65739;51.482;5.702;2023-05-10T08:35:37;27.50;;;17.50;;
76786;SDS011;65739;51.482;5.702;2023-05-10T08:38:03;33.58;;;17.80;;
76786;SDS011;65739;51.482;5.702;2023-05-10T08:40:28;27.30;;;16.15;;
76786;SDS011;65739;51.482;5.702;2023-05-10T08:43:28;30.63;;;16.88;;
76786;SDS011;65739;51.482;5.702;2023-05-10T08:45:47;20.25;;;12.95;;
76786;SDS011;65739;51.482;5.702;2023-05-10T08:48:15;20.55;;;12.43;;
76786;SDS011;65739;51.482;5.702;2023-05-10T08:50:41;21.88;;;12.05;;
76786;SDS011;65739;51.482;5.702;2023-05-10T08:53:11;19.58;;;11.93;;
76786;SDS011;65739;51.482;5.702;2023-05-10T08:55:38;20.98;;;10.68;;
76786;SDS011;65739;51.482;5.702;2023-05-10T08:58:05;23.27;;;10.90;;
76786;SDS011;65739;51.482;5.702;2023-05-10T09:00:31;15.50;;;8.18;;
76786;SDS011;65739;51.482;5.702;2023-05-10T09:02:58;16.02;;;7.82;;
76786;SDS011;65739;51.482;5.702;2023-05-10T09:05:24;13.77;;;8.45;;
76786;SDS011;65739;51.482;5.702;2023-05-10T09:07:50;12.43;;;7.32;;
76786;SDS011;65739;51.482;5.702;2023-05-10T09:10:15;14.98;;;7.57;;
76786;SDS011;65739;51.482;5.702;2023-05-10T09:12:41;12.48;;;6.85;;
76786;SDS011;65739;51.482;5.702;2023-05-10T09:15:09;19.65;;;7.43;;
76786;SDS011;65739;51.482;5.702;2023-05-10T09:17:35;9.88;;;6.57;;
76786;SDS011;65739;51.482;5.702;2023-05-10T09:20:02;12.00;;;5.80;;
76786;SDS011;65739;51.482;5.702;2023-05-10T09:22:29;10.38;;;6.03;;
76786;SDS011;65739;51.482;5.702;2023-05-10T09:25:05;11.90;;;6.47;;
76786;SDS011;65739;51.482;5.702;2023-05-10T09:27:34;11.77;;;6.03;;
76786;SDS011;65739;51.482;5.702;2023-05-10T09:30:01;13.63;;;5.85;;
76786;SDS011;65739;51.482;5.702;2023-05-10T09:32:37;12.13;;;6.18;;
76786;SDS011;65739;51.482;5.702;2023-05-10T09:35:06;11.13;;;6.05;;
76786;SDS011;65739;51.482;5.702;2023-05-10T09:37:41;10.55;;;6.07;;
76786;SDS011;65739;51.482;5.702;2023-05-10T09:40:08;10.65;;;6.63;;
76786;SDS011;65739;51.482;5.702;2023-05-10T09:42:37;7.82;;;5.53;;
76786;SDS011;65739;51.482;5.702;2023-05-10T09:45:06;8.90;;;5.85;;
76786;SDS011;65739;51.482;5.702;2023-05-10T09:47:32;12.00;;;6.60;;
76786;SDS011;65739;51.482;5.702;2023-05-10T09:50:02;12.23;;;5.80;;
76786;SDS011;65739;51.482;5.702;2023-05-10T09:52:48;9.48;;;5.40;;
76786;SDS011;65739;51.482;5.702;2023-05-10T09:55:16;6.97;;;5.38;;
76786;SDS011;65739;51.482;5.702;2023-05-10T09:57:46;10.30;;;5.28;;
76786;SDS011;65739;51.482;5.702;2023-05-10T10:00:17;9.27;;;5.47;;
76786;SDS011;65739;51.482;5.702;2023-05-10T10:05:12;5.20;;;3.70;;
76786;SDS011;65739;51.482;5.702;2023-05-10T10:07:38;6.38;;;3.63;;
76786;SDS011;65739;51.482;5.702;2023-05-10T10:10:04;6.57;;;3.58;;
76786;SDS011;65739;51.482;5.702;2023-05-10T10:12:30;7.72;;;4.00;;
76786;SDS011;65739;51.482;5.702;2023-05-10T10:14:56;9.43;;;4.18;;
76786;SDS011;65739;51.482;5.702;2023-05-10T10:17:24;5.22;;;4.05;;
76786;SDS011;65739;51.482;5.702;2023-05-10T10:19:52;8.90;;;4.40;;
76786;SDS011;65739;51.482;5.702;2023-05-10T10:22:19;5.70;;;4.30;;
76786;SDS011;65739;51.482;5.702;2023-05-10T10:24:44;9.85;;;6.10;;
76786;SDS011;65739;51.482;5.702;2023-05-10T10:29:52;9.20;;;6.53;;
76786;SDS011;65739;51.482;5.702;2023-05-10T10:32:42;7.47;;;6.20;;
76786;SDS011;65739;51.482;5.702;2023-05-10T10:35:30;7.80;;;6.25;;
76786;SDS011;65739;51.482;5.702;2023-05-10T10:37:56;8.65;;;6.72;;
76786;SDS011;65739;51.482;5.702;2023-05-10T10:40:26;9.65;;;7.13;;
76786;SDS011;65739;51.482;5.702;2023-05-10T10:42:53;11.07;;;7.40;;
76786;SDS011;65739;51.482;5.702;2023-05-10T10:45:19;10.68;;;6.85;;
76786;SDS011;65739;51.482;5.702;2023-05-10T10:47:46;10.38;;;7.43;;
76786;SDS011;65739;51.482;5.702;2023-05-10T10:50:11;9.38;;;7.05;;
76786;SDS011;65739;51.482;5.702;2023-05-10T10:52:41;13.45;;;6.90;;
76786;SDS011;65739;51.482;5.702;2023-05-10T10:55:17;10.05;;;6.85;;
76786;SDS011;65739;51.482;5.702;2023-05-10T10:57:45;7.82;;;6.65;;
76786;SDS011;65739;51.482;5.702;2023-05-10T11:02:59;9.75;;;6.38;;
76786;SDS011;65739;51.482;5.702;2023-05-10T11:05:37;7.53;;;5.72;;
76786;SDS011;65739;51.482;5.702;2023-05-10T11:08:09;7.60;;;5.55;;
76786;SDS011;65739;51.482;5.702;2023-05-10T11:16:19;9.32;;;6.15;;
76786;SDS011;65739;51.482;5.702;2023-05-10T11:18:59;7.05;;;5.95;;
76786;SDS011;65739;51.482;5.702;2023-05-10T11:21:27;8.85;;;5.60;;
76786;SDS011;65739;51.482;5.702;2023-05-10T11:23:54;9.07;;;5.03;;
76786;SDS011;65739;51.482;5.702;2023-05-10T11:26:22;8.70;;;4.90;;
76786;SDS011;65739;51.482;5.702;2023-05-10T11:28:52;8.63;;;5.25;;
76786;SDS011;65739;51.482;5.702;2023-05-10T11:31:20;5.70;;;5.10;;
76786;SDS011;65739;51.482;5.702;2023-05-10T11:33:47;7.60;;;6.80;;
76786;SDS011;65739;51.482;5.702;2023-05-10T11:36:15;10.45;;;7.95;;
76786;SDS011;65739;51.482;5.702;2023-05-10T11:38:42;13.82;;;10.23;;
76786;SDS011;65739;51.482;5.702;2023-05-10T11:41:08;17.33;;;11.13;;
76786;SDS011;65739;51.482;5.702;2023-05-10T11:43:35;16.33;;;11.88;;
76786;SDS011;65739;51.482;5.702;2023-05-10T11:46:03;12.30;;;10.77;;
76786;SDS011;65739;51.482;5.702;2023-05-10T11:48:30;13.45;;;10.15;;
76786;SDS011;65739;51.482;5.702;2023-05-10T11:50:56;12.38;;;10.00;;
76786;SDS011;65739;51.482;5.702;2023-05-10T11:53:22;11.90;;;10.18;;
76786;SDS011;65739;51.482;5.702;2023-05-10T11:55:50;14.35;;;10.07;;
76786;SDS011;65739;51.482;5.702;2023-05-10T11:58:17;13.38;;;10.00;;
76786;SDS011;65739;51.482;5.702;2023-05-10T12:00:43;16.08;;;10.82;;
76786;SDS011;65739;51.482;5.702;2023-05-10T12:03:09;12.18;;;10.50;;
76786;SDS011;65739;51.482;5.702;2023-05-10T12:05:37;13.52;;;10.40;;
76786;SDS011;65739;51.482;5.702;2023-05-10T12:08:15;12.88;;;9.18;;
76786;SDS011;65739;51.482;5.702;2023-05-10T12:10:45;11.55;;;8.48;;
76786;SDS011;65739;51.482;5.702;2023-05-10T12:13:11;14.77;;;9.77;;
76786;SDS011;65739;51.482;5.702;2023-05-10T12:15:40;12.18;;;9.35;;
76786;SDS011;65739;51.482;5.702;2023-05-10T12:18:10;13.57;;;10.02;;
76786;SDS011;65739;51.482;5.702;2023-05-10T12:20:37;12.50;;;10.10;;
76786;SDS011;65739;51.482;5.702;2023-05-10T12:23:03;13.35;;;10.43;;
76786;SDS011;65739;51.482;5.702;2023-05-10T12:25:32;13.57;;;10.57;;
76786;SDS011;65739;51.482;5.702;2023-05-10T12:30:28;13.85;;;10.02;;
76786;SDS011;65739;51.482;5.702;2023-05-10T12:32:59;9.90;;;8.30;;
76786;SDS011;65739;51.482;5.702;2023-05-10T12:35:29;11.23;;;9.15;;
76786;SDS011;65739;51.482;5.702;2023-05-10T12:37:55;12.27;;;8.70;;
76786;SDS011;65739;51.482;5.702;2023-05-10T12:40:21;13.65;;;8.85;;
76786;SDS011;65739;51.482;5.702;2023-05-10T12:42:46;11.07;;;8.15;;
76786;SDS011;65739;51.482;5.702;2023-05-10T12:45:13;11.52;;;7.68;;
76786;SDS011;65739;51.482;5.702;2023-05-10T12:47:39;11.20;;;6.88;;
76786;SDS011;65739;51.482;5.702;2023-05-10T12:50:05;12.02;;;8.00;;
76786;SDS011;65739;51.482;5.702;2023-05-10T12:52:31;14.68;;;8.88;;
76786;SDS011;65739;51.482;5.702;2023-05-10T12:54:57;10.52;;;8.70;;
76786;SDS011;65739;51.482;5.702;2023-05-10T12:57:24;12.23;;;8.25;;
76786;SDS011;65739;51.482;5.702;2023-05-10T12:59:50;10.40;;;8.65;;
76786;SDS011;65739;51.482;5.702;2023-05-10T13:02:15;11.43;;;7.80;;
76786;SDS011;65739;51.482;5.702;2023-05-10T13:04:43;11.57;;;7.65;;
76786;SDS011;65739;51.482;5.702;2023-05-10T13:07:11;11.30;;;7.97;;
76786;SDS011;65739;51.482;5.702;2023-05-10T13:09:37;11.25;;;8.95;;
76786;SDS011;65739;51.482;5.702;2023-05-10T13:12:03;14.88;;;10.43;;
76786;SDS011;65739;51.482;5.702;2023-05-10T13:14:29;14.10;;;11.35;;
76786;SDS011;65739;51.482;5.702;2023-05-10T13:16:56;17.55;;;11.63;;
76786;SDS011;65739;51.482;5.702;2023-05-10T13:19:22;14.85;;;11.75;;
76786;SDS011;65739;51.482;5.702;2023-05-10T13:21:47;16.98;;;12.32;;
76786;SDS011;65739;51.482;5.702;2023-05-10T13:24:13;16.88;;;11.85;;
76786;SDS011;65739;51.482;5.702;2023-05-10T13:26:42;14.57;;;11.57;;
76786;SDS011;65739;51.482;5.702;2023-05-10T13:29:07;17.05;;;11.50;;
76786;SDS011;65739;51.482;5.702;2023-05-10T13:31:33;12.50;;;10.05;;
76786;SDS011;65739;51.482;5.702;2023-05-10T13:33:59;12.82;;;10.13;;
76786;SDS011;65739;51.482;5.702;2023-05-10T13:36:25;13.13;;;9.68;;
76786;SDS011;65739;51.482;5.702;2023-05-10T13:38:50;8.55;;;7.45;;
76786;SDS011;65739;51.482;5.702;2023-05-10T13:41:16;12.50;;;7.20;;
76786;SDS011;65739;51.482;5.702;2023-05-10T13:43:41;8.07;;;6.50;;
76786;SDS011;65739;51.482;5.702;2023-05-10T13:46:07;7.00;;;6.30;;
76786;SDS011;65739;51.482;5.702;2023-05-10T13:48:32;7.18;;;6.03;;
76786;SDS011;65739;51.482;5.702;2023-05-10T13:50:58;7.43;;;5.90;;
76786;SDS011;65739;51.482;5.702;2023-05-10T13:53:23;7.22;;;5.43;;
76786;SDS011;65739;51.482;5.702;2023-05-10T13:55:49;6.68;;;5.25;;
76786;SDS011;65739;51.482;5.702;2023-05-10T13:58:15;6.13;;;5.22;;
76786;SDS011;65739;51.482;5.702;2023-05-10T14:00:40;7.60;;;6.55;;
76786;SDS011;65739;51.482;5.702;2023-05-10T14:03:06;9.15;;;7.60;;
76786;SDS011;65739;51.482;5.702;2023-05-10T14:05:33;8.75;;;7.43;;
76786;SDS011;65739;51.482;5.702;2023-05-10T14:07:59;11.02;;;8.48;;
76786;SDS011;65739;51.482;5.702;2023-05-10T14:10:25;9.52;;;8.40;;
76786;SDS011;65739;51.482;5.702;2023-05-10T14:12:50;9.13;;;8.18;;
76786;SDS011;65739;51.482;5.702;2023-05-10T14:15:16;8.52;;;7.72;;
76786;SDS011;65739;51.482;5.702;2023-05-10T14:17:41;9.30;;;7.85;;
76786;SDS011;65739;51.482;5.702;2023-05-10T14:20:07;11.82;;;9.00;;
76786;SDS011;65739;51.482;5.702;2023-05-10T14:22:33;9.68;;;8.68;;
76786;SDS011;65739;51.482;5.702;2023-05-10T14:24:59;10.10;;;9.18;;
76786;SDS011;65739;51.482;5.702;2023-05-10T14:27:25;10.30;;;9.10;;
76786;SDS011;65739;51.482;5.702;2023-05-10T14:29:50;11.35;;;10.15;;
76786;SDS011;65739;51.482;5.702;2023-05-10T14:32:16;15.20;;;10.80;;
76786;SDS011;65739;51.482;5.702;2023-05-10T14:34:42;14.43;;;11.57;;
76786;SDS011;65739;51.482;5.702;2023-05-10T14:37:09;14.65;;;11.82;;
76786;SDS011;65739;51.482;5.702;2023-05-10T14:39:36;16.13;;;12.52;;
76786;SDS011;65739;51.482;5.702;2023-05-10T14:42:01;18.23;;;13.88;;
76786;SDS011;65739;51.482;5.702;2023-05-10T14:44:27;21.30;;;13.60;;
76786;SDS011;65739;51.482;5.702;2023-05-10T14:46:53;16.10;;;12.48;;
76786;SDS011;65739;51.482;5.702;2023-05-10T14:49:19;30.02;;;14.32;;
76786;SDS011;65739;51.482;5.702;2023-05-10T14:51:47;21.88;;;13.65;;
76786;SDS011;65739;51.482;5.702;2023-05-10T14:54:13;20.92;;;13.70;;
76786;SDS011;65739;51.482;5.702;2023-05-10T14:56:38;21.73;;;15.20;;
76786;SDS011;65739;51.482;5.702;2023-05-10T14:59:07;22.02;;;15.35;;
76786;SDS011;65739;51.482;5.702;2023-05-10T15:01:33;23.95;;;16.65;;
76786;SDS011;65739;51.482;5.702;2023-05-10T15:04:04;25.17;;;15.75;;
76786;SDS011;65739;51.482;5.702;2023-05-10T15:06:31;19.63;;;15.13;;
76786;SDS011;65739;51.482;5.702;2023-05-10T15:08:57;21.85;;;15.40;;